Estación de Tranapuente INIA

Ultimos registro cada 15 minutos 77
Estación Fecha / Hora Temperatura Humedad Lluvia Velocidad Dirección Radiación Presion
77 Tranapuente INIA 04-05-2026 19:00 12,4 97,9 0,7 0,2 42 0 1006
76 Tranapuente INIA 04-05-2026 18:45 12,6 97,2 0,8 0 0 0 1005
75 Tranapuente INIA 04-05-2026 18:30 12,8 95,5 0,6 0 0 0 1005
74 Tranapuente INIA 04-05-2026 18:15 13,2 93,1 1 0 0 0 1005
73 Tranapuente INIA 04-05-2026 18:00 13,7 88,3 0,5 0 0 2 1005
72 Tranapuente INIA 04-05-2026 17:45 13,8 85,2 0,1 0,1 13 5 1005
71 Tranapuente INIA 04-05-2026 17:30 14,2 89,5 0 0 0 7 1006
70 Tranapuente INIA 04-05-2026 17:15 14,5 80,5 0 0 0 12 1006
69 Tranapuente INIA 04-05-2026 17:00 14,6 81,2 0 0 0 21 1006
68 Tranapuente INIA 04-05-2026 16:45 14,8 83,4 0 0 0 32 1006
67 Tranapuente INIA 04-05-2026 16:30 14,9 80,6 0 0 0 68 1006
66 Tranapuente INIA 04-05-2026 16:15 15 78,5 0 0,1 14 75 1006
65 Tranapuente INIA 04-05-2026 16:00 15,1 75,9 0 0,5 21 88 1006
64 Tranapuente INIA 04-05-2026 15:45 15,2 76,6 0 1 28 113 1006
63 Tranapuente INIA 04-05-2026 15:30 15,1 79,2 0 1,5 23 112 1005
62 Tranapuente INIA 04-05-2026 15:15 15 78,8 0 1,5 20 132 1005
61 Tranapuente INIA 04-05-2026 15:00 14,8 80,4 0 1,1 32 106 1006
60 Tranapuente INIA 04-05-2026 14:45 14,6 81,8 0 0 0 77 1006
59 Tranapuente INIA 04-05-2026 14:30 14,3 82,8 0 1,2 22 97 1006
58 Tranapuente INIA 04-05-2026 14:15 14,4 83,6 0 1,7 24 98 1006
57 Tranapuente INIA 04-05-2026 14:00 14,5 77,9 0 1,9 27 94 1006
56 Tranapuente INIA 04-05-2026 13:45 14,5 82 0 1,6 20 74 1006
55 Tranapuente INIA 04-05-2026 13:30 14,5 81,5 0 2 23 70 1006
54 Tranapuente INIA 04-05-2026 13:15 14,5 80,3 0 2,4 22 67 1007
53 Tranapuente INIA 04-05-2026 13:00 14,6 78,4 0 1,4 17 89 1007
52 Tranapuente INIA 04-05-2026 12:45 14,4 82,4 0 1,2 20 99 1007
51 Tranapuente INIA 04-05-2026 12:30 13,9 82,4 0 1 7 93 1007
50 Tranapuente INIA 04-05-2026 12:15 12,3 91,8 0 0,9 33 87 1006
49 Tranapuente INIA 04-05-2026 12:00 11,4 98,7 0 0 0 70 1007
48 Tranapuente INIA 04-05-2026 11:45 11,2 99,1 0 0 0 67 1007
47 Tranapuente INIA 04-05-2026 11:30 11 99,1 0 0 0 76 1007
46 Tranapuente INIA 04-05-2026 11:15 10,9 98,8 0 0,2 98 89 1007
45 Tranapuente INIA 04-05-2026 11:00 10,6 99 0 0,2 97 65 1007
44 Tranapuente INIA 04-05-2026 10:45 10,4 99 0 0 116 50 1007
43 Tranapuente INIA 04-05-2026 10:30 10,3 99,4 0 0 123 55 1007
42 Tranapuente INIA 04-05-2026 10:15 10,1 99,4 0 0,1 148 67 1007
41 Tranapuente INIA 04-05-2026 10:00 9,9 99,9 0 0 0 50 1007
40 Tranapuente INIA 04-05-2026 09:45 9,8 99,8 0 0 0 47 1007
39 Tranapuente INIA 04-05-2026 09:30 9,6 99,9 0 0 0 38 1006
38 Tranapuente INIA 04-05-2026 09:15 9,6 99,9 0 0,1 119 25 1007
37 Tranapuente INIA 04-05-2026 09:00 9,5 99,9 0 0 0 20 1006
36 Tranapuente INIA 04-05-2026 08:45 9,5 99,9 0 0,4 115 20 1007
35 Tranapuente INIA 04-05-2026 08:30 9,4 99,9 0 0,6 104 21 1006
34 Tranapuente INIA 04-05-2026 08:15 9,3 99,9 0 0 113 12 1006
33 Tranapuente INIA 04-05-2026 08:00 9,3 100 0 0 101 3 1006
32 Tranapuente INIA 04-05-2026 07:45 9,4 99,9 0 0 0 1 1006
31 Tranapuente INIA 04-05-2026 07:30 9,4 99,9 0,2 0,1 88 0 1006
30 Tranapuente INIA 04-05-2026 07:15 9,5 100 0 0 0 0 1006
29 Tranapuente INIA 04-05-2026 07:00 9,6 100 0 0 0 0 1006
28 Tranapuente INIA 04-05-2026 06:45 9,6 99,9 0 0 0 0 1006
27 Tranapuente INIA 04-05-2026 06:30 9,6 99,8 0 0 0 0 1006
26 Tranapuente INIA 04-05-2026 06:15 9,6 99,9 0 0 0 0 1006
25 Tranapuente INIA 04-05-2026 06:00 9,7 99,8 0,1 0 0 0 1006
24 Tranapuente INIA 04-05-2026 05:45 9,6 99,9 0 0 0 0 1006
23 Tranapuente INIA 04-05-2026 05:30 9,4 99,9 0 0 108 0 1006
22 Tranapuente INIA 04-05-2026 05:15 9,5 99,7 0 0 0 0 1006
21 Tranapuente INIA 04-05-2026 05:00 9,5 99,7 0 0 0 0 1006
20 Tranapuente INIA 04-05-2026 04:45 9,6 99,6 0 0 0 0 1006
19 Tranapuente INIA 04-05-2026 04:30 9,6 99,6 0 0 0 0 1006
18 Tranapuente INIA 04-05-2026 04:15 9,5 99,6 0 0 0 0 1006
17 Tranapuente INIA 04-05-2026 04:00 9,5 99,5 0 0 0 0 1006
16 Tranapuente INIA 04-05-2026 03:45 9,5 99,3 0 0 0 0 1006
15 Tranapuente INIA 04-05-2026 03:30 9,6 99,2 0 0 0 0 1006
14 Tranapuente INIA 04-05-2026 03:15 9,8 98,9 0 0 0 0 1007
13 Tranapuente INIA 04-05-2026 03:00 9,8 98,9 0 0 0 0 1006
12 Tranapuente INIA 04-05-2026 02:45 9,9 98,3 0 0,2 108 0 1007
11 Tranapuente INIA 04-05-2026 02:30 10,2 98,3 0 0 0 0 1007
10 Tranapuente INIA 04-05-2026 02:15 10,4 98,4 0 0 0 0 1007
9 Tranapuente INIA 04-05-2026 02:00 10,5 98,3 0 0 0 0 1007
8 Tranapuente INIA 04-05-2026 01:45 10,4 97,7 0 0,1 58 0 1007
7 Tranapuente INIA 04-05-2026 01:30 10,1 99,6 0 0 0 0 1007
6 Tranapuente INIA 04-05-2026 01:15 10 99,9 0,2 0 0 0 1007
5 Tranapuente INIA 04-05-2026 01:00 10,4 99,4 0 0 0 0 1008
4 Tranapuente INIA 04-05-2026 00:45 10,7 99,6 0 0,4 101 0 1008
3 Tranapuente INIA 04-05-2026 00:30 10,4 99,9 0 0 0 0 1008
2 Tranapuente INIA 04-05-2026 00:15 10,2 99,9 0 1,3 100 0 1008
1 Tranapuente INIA 04-05-2026 00:00 10,1 100 0,3 0,2 100 0 1009